KPUJ

Details ICAO KPUJ
Name Paulding Northwest Atlanta
Region United States
Timezone America/New_York (UTC-5.0)
Plans Departing 2
Arriving 0
Stats Elevation 1,289 ft / 393 m (AMSL)
Location 33.912043° -84.940619°
Runways 1
Magnetic Variation 4.777° W
Sunrise 2017-12-12 12:37:10 UTC / 2017-12-12 07:37:10 Local
Sunset 2017-12-12 22:32:54 UTC / 2017-12-12 17:32:54 Local
Advertisement - Login to hide

Runways

ID Width Length Bearing (true) Bearing (mag) Surface Threshold Offset Overrun Length
13 100 ft / 30 m 5,504 ft / 1,678 m 127.57° 132.35° Concrete 0 ft / 0 m 0 ft / 0 m
31 100 ft / 30 m 5,504 ft / 1,678 m 307.58° 312.36° Concrete 0 ft / 0 m 0 ft / 0 m

Approach Navaids

Runway Type Ident Frequency Range Bearing (true) Bearing (mag) Slope Elevation
31 Localiser IPUJ 109.15 MHz 18 nm / 33 km 307.57° 312.35° - 1,289 ft / 393 m (AMSL)
31 Glidescope IPUJ 109.15 MHz 10 nm / 19 km 307.57° 312.35° 3.00° 1,289 ft / 393 m (AMSL)
31 DME IPUJ 109.15 MHz 18 nm / 33 km - - - 1,289 ft / 393 m (AMSL)

Map

Weather


0- 5 10 15 20 25 30 35+ Temperature / ° C

Clouds and Precipitation
Forecast for 2017-12-13 00:00 UTC. Updated an hour ago

Ground ~20,000 ft ~40,000 ft Winds

METAR

KPUJ 122215Z AUTO 31012G19KT 10SM CLR 09/00 A2994 RMK AO2

TAF

Not found
Warning: Do not use this data for real-world aviation or navigation. No guarantee of current accuracy is given.